sensor_id;sensor_type;location;lat;lon;timestamp;temperature;humidity
7378;DHT22;3730;50.856;12.776;2023-04-23T03:01:16;17.40;1.00
7378;DHT22;3730;50.856;12.776;2023-04-23T03:03:41;15.00;42.20
7378;DHT22;3730;50.856;12.776;2023-04-23T03:06:07;14.90;44.10
7378;DHT22;3730;50.856;12.776;2023-04-23T03:08:33;14.80;47.60
7378;DHT22;3730;50.856;12.776;2023-04-23T03:10:59;14.70;49.70
7378;DHT22;3730;50.856;12.776;2023-04-23T03:13:25;14.70;50.50
7378;DHT22;3730;50.856;12.776;2023-04-23T03:15:52;14.70;51.50
7378;DHT22;3730;50.856;12.776;2023-04-23T03:18:21;14.70;53.40
7378;DHT22;3730;50.856;12.776;2023-04-23T03:20:46;14.60;52.80
7378;DHT22;3730;50.856;12.776;2023-04-23T03:23:12;14.60;54.40
7378;DHT22;3730;50.856;12.776;2023-04-23T03:25:38;14.60;54.90
7378;DHT22;3730;50.856;12.776;2023-04-23T03:28:03;14.60;54.50
7378;DHT22;3730;50.856;12.776;2023-04-23T03:30:30;14.60;55.80
7378;DHT22;3730;50.856;12.776;2023-04-23T03:32:56;14.60;56.80
7378;DHT22;3730;50.856;12.776;2023-04-23T03:35:23;14.50;59.00
7378;DHT22;3730;50.856;12.776;2023-04-23T03:37:49;15.10;62.90
7378;DHT22;3730;50.856;12.776;2023-04-23T03:40:14;14.70;65.30
7378;DHT22;3730;50.856;12.776;2023-04-23T03:42:40;14.30;66.80
7378;DHT22;3730;50.856;12.776;2023-04-23T03:45:06;14.20;67.10
7378;DHT22;3730;50.856;12.776;2023-04-23T03:47:32;14.20;69.30
7378;DHT22;3730;50.856;12.776;2023-04-23T03:49:57;14.10;69.30
7378;DHT22;3730;50.856;12.776;2023-04-23T03:52:23;14.10;70.20
7378;DHT22;3730;50.856;12.776;2023-04-23T06:18:56;14.60;72.80
7378;DHT22;3730;50.856;12.776;2023-04-23T06:21:22;13.40;99.90
7378;DHT22;3730;50.856;12.776;2023-04-23T06:23:48;13.40;99.90
7378;DHT22;3730;50.856;12.776;2023-04-23T06:26:14;13.40;99.90
7378;DHT22;3730;50.856;12.776;2023-04-23T06:28:44;13.40;99.90
7378;DHT22;3730;50.856;12.776;2023-04-23T06:31:10;13.40;99.90
7378;DHT22;3730;50.856;12.776;2023-04-23T06:33:36;13.30;99.90
7378;DHT22;3730;50.856;12.776;2023-04-23T06:36:03;14.00;99.90
7378;DHT22;3730;50.856;12.776;2023-04-23T06:38:29;13.40;99.90
7378;DHT22;3730;50.856;12.776;2023-04-23T06:40:54;13.40;99.90
7378;DHT22;3730;50.856;12.776;2023-04-23T06:43:20;13.50;99.90
7378;DHT22;3730;50.856;12.776;2023-04-23T06:45:46;13.50;99.90
7378;DHT22;3730;50.856;12.776;2023-04-23T06:48:11;13.60;99.90
7378;DHT22;3730;50.856;12.776;2023-04-23T06:50:38;13.70;99.90
7378;DHT22;3730;50.856;12.776;2023-04-23T06:53:04;13.70;99.90
7378;DHT22;3730;50.856;12.776;2023-04-23T06:55:30;13.80;99.90
7378;DHT22;3730;50.856;12.776;2023-04-23T06:57:56;13.90;99.90
7378;DHT22;3730;50.856;12.776;2023-04-23T07:00:22;14.30;99.90
7378;DHT22;3730;50.856;12.776;2023-04-23T07:02:48;14.10;99.90
7378;DHT22;3730;50.856;12.776;2023-04-23T07:05:15;14.20;99.90
7378;DHT22;3730;50.856;12.776;2023-04-23T07:07:40;14.30;99.90
7378;DHT22;3730;50.856;12.776;2023-04-23T07:10:08;14.40;99.90
7378;DHT22;3730;50.856;12.776;2023-04-23T07:12:35;14.50;99.90
7378;DHT22;3730;50.856;12.776;2023-04-23T07:15:01;14.50;99.90
7378;DHT22;3730;50.856;12.776;2023-04-23T07:17:27;14.50;99.60
7378;DHT22;3730;50.856;12.776;2023-04-23T07:19:52;14.50;99.90
7378;DHT22;3730;50.856;12.776;2023-04-23T07:22:18;14.40;99.90
7378;DHT22;3730;50.856;12.776;2023-04-23T07:24:44;14.50;99.90
7378;DHT22;3730;50.856;12.776;2023-04-23T07:27:09;14.40;99.90
7378;DHT22;3730;50.856;12.776;2023-04-23T07:29:35;14.40;99.90
7378;DHT22;3730;50.856;12.776;2023-04-23T07:32:01;14.40;99.90
7378;DHT22;3730;50.856;12.776;2023-04-23T07:34:26;14.30;99.90
7378;DHT22;3730;50.856;12.776;2023-04-23T07:36:52;14.30;99.90
7378;DHT22;3730;50.856;12.776;2023-04-23T07:39:17;14.20;99.90
7378;DHT22;3730;50.856;12.776;2023-04-23T07:41:43;15.00;99.90
7378;DHT22;3730;50.856;12.776;2023-04-23T07:44:09;14.30;99.90
7378;DHT22;3730;50.856;12.776;2023-04-23T07:46:34;14.40;99.90
7378;DHT22;3730;50.856;12.776;2023-04-23T07:49:00;14.40;99.90
7378;DHT22;3730;50.856;12.776;2023-04-23T07:51:26;14.50;99.90
7378;DHT22;3730;50.856;12.776;2023-04-23T07:53:52;14.60;99.90
7378;DHT22;3730;50.856;12.776;2023-04-23T07:56:19;14.50;99.90
7378;DHT22;3730;50.856;12.776;2023-04-23T07:58:46;14.50;99.90
7378;DHT22;3730;50.856;12.776;2023-04-23T08:01:12;14.50;99.90
7378;DHT22;3730;50.856;12.776;2023-04-23T08:03:38;14.70;99.90
7378;DHT22;3730;50.856;12.776;2023-04-23T08:06:03;14.60;99.90
7378;DHT22;3730;50.856;12.776;2023-04-23T08:08:29;14.60;99.90
7378;DHT22;3730;50.856;12.776;2023-04-23T08:10:55;14.50;99.90
7378;DHT22;3730;50.856;12.776;2023-04-23T08:13:20;14.50;99.90
7378;DHT22;3730;50.856;12.776;2023-04-23T08:15:46;14.60;99.90
7378;DHT22;3730;50.856;12.776;2023-04-23T08:18:13;14.60;99.90
7378;DHT22;3730;50.856;12.776;2023-04-23T08:20:39;15.30;99.90
7378;DHT22;3730;50.856;12.776;2023-04-23T08:23:05;14.60;99.20
7378;DHT22;3730;50.856;12.776;2023-04-23T08:25:31;14.60;98.50
7378;DHT22;3730;50.856;12.776;2023-04-23T09:31:47;14.70;98.50
7378;DHT22;3730;50.856;12.776;2023-04-23T09:34:15;13.30;99.90
7378;DHT22;3730;50.856;12.776;2023-04-23T09:36:44;13.00;99.90
7378;DHT22;3730;50.856;12.776;2023-04-23T09:39:14;12.80;99.90
7378;DHT22;3730;50.856;12.776;2023-04-23T09:41:41;12.70;99.90
7378;DHT22;3730;50.856;12.776;2023-04-23T09:44:07;12.60;99.90
7378;DHT22;3730;50.856;12.776;2023-04-23T09:46:40;12.70;99.90
7378;DHT22;3730;50.856;12.776;2023-04-23T09:49:07;12.60;99.90
7378;DHT22;3730;50.856;12.776;2023-04-23T09:54:02;12.40;99.90
7378;DHT22;3730;50.856;12.776;2023-04-23T09:56:29;12.40;99.90
7378;DHT22;3730;50.856;12.776;2023-04-23T09:58:56;12.30;99.90
7378;DHT22;3730;50.856;12.776;2023-04-23T10:01:28;12.30;99.90
7378;DHT22;3730;50.856;12.776;2023-04-23T10:03:54;12.20;99.90
7378;DHT22;3730;50.856;12.776;2023-04-23T10:06:28;12.20;99.90
7378;DHT22;3730;50.856;12.776;2023-04-23T10:08:55;12.10;99.90
7378;DHT22;3730;50.856;12.776;2023-04-23T10:11:25;12.10;99.90
7378;DHT22;3730;50.856;12.776;2023-04-23T10:13:52;12.20;99.90
7378;DHT22;3730;50.856;12.776;2023-04-23T10:16:20;12.40;99.90
7378;DHT22;3730;50.856;12.776;2023-04-23T10:18:46;12.40;99.90
7378;DHT22;3730;50.856;12.776;2023-04-23T10:21:13;13.10;99.90
7378;DHT22;3730;50.856;12.776;2023-04-23T10:23:42;12.40;99.90
7378;DHT22;3730;50.856;12.776;2023-04-23T10:26:09;12.40;99.90
7378;DHT22;3730;50.856;12.776;2023-04-23T10:28:38;12.80;99.90
7378;DHT22;3730;50.856;12.776;2023-04-23T10:31:05;12.40;99.90
7378;DHT22;3730;50.856;12.776;2023-04-23T10:33:31;12.50;99.90
7378;DHT22;3730;50.856;12.776;2023-04-23T10:35:58;12.60;99.90
7378;DHT22;3730;50.856;12.776;2023-04-23T10:38:24;12.80;99.90
7378;DHT22;3730;50.856;12.776;2023-04-23T10:40:54;12.80;99.90
7378;DHT22;3730;50.856;12.776;2023-04-23T10:43:20;12.90;99.90
7378;DHT22;3730;50.856;12.776;2023-04-23T10:45:45;13.00;99.90
7378;DHT22;3730;50.856;12.776;2023-04-23T10:48:11;13.20;99.30
7378;DHT22;3730;50.856;12.776;2023-04-23T10:50:37;13.30;98.70
7378;DHT22;3730;50.856;12.776;2023-04-23T10:53:03;13.40;98.00
7378;DHT22;3730;50.856;12.776;2023-04-23T10:55:30;13.50;90.70
7378;DHT22;3730;50.856;12.776;2023-04-23T10:58:04;13.60;84.30
7378;DHT22;3730;50.856;12.776;2023-04-23T11:03:30;13.70;82.90
7378;DHT22;3730;50.856;12.776;2023-04-23T11:05:59;13.90;83.90
7378;DHT22;3730;50.856;12.776;2023-04-23T11:10:56;13.90;83.10
7378;DHT22;3730;50.856;12.776;2023-04-23T12:38:23;17.30;47.50
7378;DHT22;3730;50.856;12.776;2023-04-23T12:40:51;17.40;45.20
7378;DHT22;3730;50.856;12.776;2023-04-23T12:43:16;17.50;44.00
7378;DHT22;3730;50.856;12.776;2023-04-23T12:45:42;17.70;41.80
7378;DHT22;3730;50.856;12.776;2023-04-23T12:48:08;17.90;41.90
7378;DHT22;3730;50.856;12.776;2023-04-23T12:50:33;18.10;39.40
7378;DHT22;3730;50.856;12.776;2023-04-23T12:52:59;18.10;35.10
7378;DHT22;3730;50.856;12.776;2023-04-23T12:55:24;18.00;34.40
7378;DHT22;3730;50.856;12.776;2023-04-23T12:57:50;18.10;33.00
7378;DHT22;3730;50.856;12.776;2023-04-23T13:00:16;18.20;33.00
7378;DHT22;3730;50.856;12.776;2023-04-23T13:02:41;18.30;29.50
7378;DHT22;3730;50.856;12.776;2023-04-23T13:05:07;18.10;30.10
7378;DHT22;3730;50.856;12.776;2023-04-23T13:07:34;17.90;30.50
7378;DHT22;3730;50.856;12.776;2023-04-23T13:09:59;17.80;30.30
7378;DHT22;3730;50.856;12.776;2023-04-23T13:12:25;17.90;30.00
7378;DHT22;3730;50.856;12.776;2023-04-23T13:14:51;17.90;31.20
7378;DHT22;3730;50.856;12.776;2023-04-23T13:17:16;18.20;29.20
7378;DHT22;3730;50.856;12.776;2023-04-23T13:19:42;18.20;26.90
7378;DHT22;3730;50.856;12.776;2023-04-23T13:22:09;18.10;26.70
7378;DHT22;3730;50.856;12.776;2023-04-23T13:24:35;18.00;26.00
7378;DHT22;3730;50.856;12.776;2023-04-23T13:27:00;17.90;26.70
7378;DHT22;3730;50.856;12.776;2023-04-23T13:29:26;18.10;27.90
7378;DHT22;3730;50.856;12.776;2023-04-23T13:31:56;18.20;27.90
7378;DHT22;3730;50.856;12.776;2023-04-23T13:34:22;18.30;26.90
7378;DHT22;3730;50.856;12.776;2023-04-23T13:36:48;18.50;26.70
7378;DHT22;3730;50.856;12.776;2023-04-23T13:39:14;18.70;26.40
7378;DHT22;3730;50.856;12.776;2023-04-23T13:41:40;18.70;26.00
7378;DHT22;3730;50.856;12.776;2023-04-23T16:35:55;18.90;23.50
7378;DHT22;3730;50.856;12.776;2023-04-23T16:38:24;17.90;16.20
7378;DHT22;3730;50.856;12.776;2023-04-23T16:40:50;17.80;16.80
7378;DHT22;3730;50.856;12.776;2023-04-23T16:43:16;17.60;20.00
7378;DHT22;3730;50.856;12.776;2023-04-23T16:45:42;17.60;23.80
7378;DHT22;3730;50.856;12.776;2023-04-23T16:48:08;17.40;26.30
7378;DHT22;3730;50.856;12.776;2023-04-23T16:50:37;17.40;35.40
7378;DHT22;3730;50.856;12.776;2023-04-23T16:53:02;17.20;38.80
7378;DHT22;3730;50.856;12.776;2023-04-23T16:55:28;17.20;46.70
7378;DHT22;3730;50.856;12.776;2023-04-23T16:57:54;16.70;49.90
7378;DHT22;3730;50.856;12.776;2023-04-23T17:00:19;17.20;51.60
7378;DHT22;3730;50.856;12.776;2023-04-23T17:02:45;17.20;53.50
7378;DHT22;3730;50.856;12.776;2023-04-23T17:05:11;17.20;55.40
7378;DHT22;3730;50.856;12.776;2023-04-23T17:07:36;17.20;56.10
7378;DHT22;3730;50.856;12.776;2023-04-23T17:10:02;17.20;55.10
7378;DHT22;3730;50.856;12.776;2023-04-23T17:12:28;17.20;57.80
7378;DHT22;3730;50.856;12.776;2023-04-23T17:14:53;17.20;57.50
7378;DHT22;3730;50.856;12.776;2023-04-23T17:17:19;17.20;57.50
7378;DHT22;3730;50.856;12.776;2023-04-23T17:19:44;17.20;57.10
7378;DHT22;3730;50.856;12.776;2023-04-23T17:22:10;17.10;55.90
7378;DHT22;3730;50.856;12.776;2023-04-23T17:24:36;17.10;57.10
7378;DHT22;3730;50.856;12.776;2023-04-23T17:27:02;17.10;56.70
7378;DHT22;3730;50.856;12.776;2023-04-23T17:29:28;17.00;57.60
7378;DHT22;3730;50.856;12.776;2023-04-23T17:31:53;17.00;58.20
7378;DHT22;3730;50.856;12.776;2023-04-23T17:34:19;17.00;56.30
7378;DHT22;3730;50.856;12.776;2023-04-23T17:36:45;17.00;54.90
7378;DHT22;3730;50.856;12.776;2023-04-23T17:39:10;16.90;54.60
7378;DHT22;3730;50.856;12.776;2023-04-23T17:41:36;16.90;53.40
7378;DHT22;3730;50.856;12.776;2023-04-23T17:46:28;16.80;53.40
7378;DHT22;3730;50.856;12.776;2023-04-23T17:48:53;16.70;51.90
7378;DHT22;3730;50.856;12.776;2023-04-23T17:51:20;16.70;52.90
7378;DHT22;3730;50.856;12.776;2023-04-23T17:53:45;16.60;53.40
7378;DHT22;3730;50.856;12.776;2023-04-23T17:56:13;16.60;54.50
7378;DHT22;3730;50.856;12.776;2023-04-23T17:58:39;16.50;54.80
7378;DHT22;3730;50.856;12.776;2023-04-23T18:01:06;16.50;54.50
7378;DHT22;3730;50.856;12.776;2023-04-23T18:03:36;16.40;53.80
7378;DHT22;3730;50.856;12.776;2023-04-23T23:26:43;16.40;53.80
7378;DHT22;3730;50.856;12.776;2023-04-23T23:29:09;13.50;99.90
7378;DHT22;3730;50.856;12.776;2023-04-23T23:31:34;12.70;99.90
7378;DHT22;3730;50.856;12.776;2023-04-23T23:34:04;12.60;99.90
7378;DHT22;3730;50.856;12.776;2023-04-23T23:36:30;12.60;99.90
7378;DHT22;3730;50.856;12.776;2023-04-23T23:38:59;12.50;99.90
7378;DHT22;3730;50.856;12.776;2023-04-23T23:41:25;12.50;99.90
7378;DHT22;3730;50.856;12.776;2023-04-23T23:43:51;12.50;99.90
7378;DHT22;3730;50.856;12.776;2023-04-23T23:46:17;12.50;99.90
7378;DHT22;3730;50.856;12.776;2023-04-23T23:48:44;12.40;99.90
7378;DHT22;3730;50.856;12.776;2023-04-23T23:51:10;12.40;99.90
